createdAt,value
2023-03-30T00:00:52.479Z,5.23
2023-03-30T00:01:52.339Z,5.25
2023-03-30T00:02:52.479Z,5.23
2023-03-30T00:03:52.379Z,5.12
2023-03-30T00:04:52.375Z,5.10
2023-03-30T00:05:52.259Z,5.04
2023-03-30T00:06:52.207Z,4.96
2023-03-30T00:07:52.180Z,4.86
2023-03-30T00:08:52.149Z,4.92
2023-03-30T00:09:52.108Z,4.78
2023-03-30T00:10:52.096Z,4.78
2023-03-30T00:11:52.107Z,4.75
2023-03-30T00:12:52.028Z,4.67
2023-03-30T00:13:52.010Z,4.68
2023-03-30T00:14:51.972Z,4.60
2023-03-30T00:15:51.929Z,4.73
2023-03-30T00:16:52.042Z,4.63
2023-03-30T00:17:51.880Z,4.68
2023-03-30T00:18:51.852Z,4.60
2023-03-30T00:19:51.843Z,4.55
2023-03-30T00:20:51.892Z,4.52
2023-03-30T00:21:51.754Z,4.48
2023-03-30T00:22:51.747Z,4.41
2023-03-30T00:23:51.693Z,4.38
2023-03-30T00:24:51.671Z,4.40
2023-03-30T00:25:51.671Z,4.44
2023-03-30T00:26:51.621Z,4.35
2023-03-30T00:27:51.593Z,4.34
2023-03-30T00:28:51.565Z,4.34
2023-03-30T00:29:51.520Z,4.38
2023-03-30T00:30:51.510Z,4.40
2023-03-30T00:31:51.504Z,4.40
2023-03-30T00:32:51.468Z,4.52
2023-03-30T00:33:51.405Z,4.49
2023-03-30T00:34:51.402Z,4.52
2023-03-30T00:35:51.480Z,4.50
2023-03-30T00:36:51.341Z,4.49
2023-03-30T00:37:51.285Z,4.50
2023-03-30T00:38:51.259Z,4.60
2023-03-30T00:39:51.254Z,4.52
2023-03-30T00:40:51.211Z,4.58
2023-03-30T00:41:51.169Z,4.68
2023-03-30T00:42:51.156Z,4.68
2023-03-30T00:43:51.111Z,4.70
2023-03-30T00:44:51.088Z,4.63
2023-03-30T00:45:51.107Z,4.74
2023-03-30T00:46:51.021Z,4.71
2023-03-30T00:47:51.041Z,4.73
2023-03-30T00:48:50.978Z,4.70
2023-03-30T00:49:50.919Z,4.66
2023-03-30T00:50:50.914Z,4.63
2023-03-30T00:51:50.871Z,4.73
2023-03-30T00:52:50.837Z,4.63
2023-03-30T00:53:50.822Z,4.73
2023-03-30T00:54:50.796Z,4.70
2023-03-30T00:55:50.744Z,4.66
2023-03-30T00:56:50.766Z,4.75
2023-03-30T00:57:50.703Z,4.74
2023-03-30T00:58:50.671Z,4.78
2023-03-30T00:59:50.652Z,4.78
2023-03-30T01:00:50.616Z,4.73
2023-03-30T01:01:50.695Z,4.66
2023-03-30T01:02:50.728Z,4.67
2023-03-30T01:03:50.741Z,4.63
2023-03-30T01:04:50.503Z,4.63
2023-03-30T01:05:50.459Z,4.59
2023-03-30T01:06:50.436Z,4.60
2023-03-30T01:07:50.415Z,4.56
2023-03-30T01:08:50.396Z,4.53
2023-03-30T01:09:50.338Z,4.42
2023-03-30T01:10:50.349Z,4.40
2023-03-30T01:11:50.281Z,4.35
2023-03-30T01:12:50.261Z,4.30
2023-03-30T01:13:50.241Z,4.34
2023-03-30T01:14:50.203Z,4.31
2023-03-30T01:15:50.209Z,4.24
2023-03-30T01:16:50.170Z,4.28
2023-03-30T01:17:50.180Z,4.20
2023-03-30T01:18:50.086Z,4.23
2023-03-30T01:19:50.048Z,4.23
2023-03-30T01:20:50.029Z,4.22
2023-03-30T01:21:49.988Z,4.06
2023-03-30T01:22:49.993Z,4.08
2023-03-30T01:23:49.925Z,4.08
2023-03-30T01:24:49.915Z,4.12
2023-03-30T01:25:49.875Z,4.02
2023-03-30T01:26:49.846Z,4.06
2023-03-30T01:27:49.834Z,3.98
2023-03-30T01:28:49.781Z,4.05
2023-03-30T01:29:49.755Z,3.92
2023-03-30T01:30:49.844Z,3.96
2023-03-30T01:31:49.789Z,3.81
2023-03-30T01:32:49.697Z,3.83
2023-03-30T01:33:49.659Z,3.70
2023-03-30T01:34:49.653Z,3.73
2023-03-30T01:35:49.674Z,3.73
2023-03-30T01:36:49.572Z,3.68
2023-03-30T01:37:49.515Z,3.66
2023-03-30T01:38:49.500Z,3.56
2023-03-30T01:39:49.446Z,3.63
2023-03-30T01:40:49.427Z,3.65
2023-03-30T01:41:49.407Z,3.55
2023-03-30T01:42:49.382Z,3.56
2023-03-30T01:43:49.326Z,3.55
2023-03-30T01:44:49.330Z,3.58
2023-03-30T01:45:49.277Z,3.56
2023-03-30T01:46:49.327Z,3.62
2023-03-30T01:47:49.299Z,3.59
2023-03-30T01:48:49.238Z,3.60
2023-03-30T01:49:49.160Z,3.65
2023-03-30T01:50:49.154Z,3.60
2023-03-30T01:51:49.094Z,3.59
2023-03-30T01:52:50.407Z,3.66
2023-03-30T01:53:49.039Z,3.62
2023-03-30T01:54:49.020Z,3.58
2023-03-30T01:55:49.011Z,3.59
2023-03-30T01:56:48.993Z,3.42
2023-03-30T01:57:48.911Z,3.47
2023-03-30T01:58:48.923Z,3.55
2023-03-30T01:59:48.858Z,3.50
2023-03-30T02:00:48.827Z,3.53
2023-03-30T02:01:48.872Z,3.59
2023-03-30T02:02:48.904Z,3.63
2023-03-30T02:03:48.787Z,3.55
2023-03-30T02:04:48.738Z,3.56
2023-03-30T02:05:48.674Z,3.55
2023-03-30T02:06:48.665Z,3.58
2023-03-30T02:07:48.645Z,3.63
2023-03-30T02:08:48.580Z,3.65
2023-03-30T02:09:48.588Z,3.68
2023-03-30T02:10:48.528Z,3.70
2023-03-30T02:11:48.498Z,3.77
2023-03-30T02:12:48.494Z,3.76
2023-03-30T02:13:48.435Z,3.80
2023-03-30T02:14:48.403Z,3.76
2023-03-30T02:15:48.407Z,3.86
2023-03-30T02:16:48.428Z,3.88
2023-03-30T02:17:48.450Z,3.88
2023-03-30T02:18:48.317Z,3.91
2023-03-30T02:19:48.260Z,3.86
2023-03-30T02:20:48.224Z,3.84
2023-03-30T02:21:48.231Z,3.76
2023-03-30T02:22:48.168Z,3.88
2023-03-30T02:23:48.158Z,3.78
2023-03-30T02:24:48.109Z,3.76
2023-03-30T02:25:48.157Z,3.66
2023-03-30T02:26:48.088Z,3.80
2023-03-30T02:27:48.033Z,3.70
2023-03-30T02:28:47.992Z,3.70
2023-03-30T02:29:48.037Z,3.63
2023-03-30T02:30:47.950Z,3.50
2023-03-30T02:31:47.951Z,3.60
2023-03-30T02:32:47.901Z,3.58
2023-03-30T02:33:47.841Z,3.53
2023-03-30T02:34:47.826Z,3.55
2023-03-30T02:35:47.823Z,3.60
2023-03-30T02:36:47.747Z,3.58
2023-03-30T02:37:47.759Z,3.58
2023-03-30T02:38:47.689Z,3.65
2023-03-30T02:39:47.662Z,3.66
2023-03-30T02:40:47.647Z,3.63
2023-03-30T02:41:47.603Z,3.66
2023-03-30T02:42:47.565Z,3.68
2023-03-30T02:43:47.582Z,3.70
2023-03-30T02:44:47.523Z,3.56
2023-03-30T02:45:47.536Z,3.59
2023-03-30T02:46:47.470Z,3.45
2023-03-30T02:47:47.478Z,3.42
2023-03-30T02:48:47.405Z,3.42
2023-03-30T02:49:47.387Z,3.31
2023-03-30T02:50:47.351Z,3.23
2023-03-30T02:51:47.314Z,3.19
2023-03-30T02:52:47.269Z,3.10
2023-03-30T02:53:47.253Z,3.14
2023-03-30T02:54:47.232Z,3.10
2023-03-30T02:55:47.187Z,3.05
2023-03-30T02:56:47.182Z,3.10
2023-03-30T02:57:47.145Z,3.04
2023-03-30T02:58:47.106Z,3.03
2023-03-30T02:59:47.062Z,3.04
2023-03-30T03:00:47.043Z,2.90
2023-03-30T03:01:47.017Z,2.89
2023-03-30T03:02:47.115Z,3.03
2023-03-30T03:03:47.045Z,3.03
2023-03-30T03:04:46.908Z,3.01
2023-03-30T03:05:46.884Z,3.00
2023-03-30T03:06:46.853Z,3.03
2023-03-30T03:07:46.814Z,3.08
2023-03-30T03:08:46.813Z,3.10
2023-03-30T03:09:46.764Z,3.08
2023-03-30T03:10:46.725Z,3.07
2023-03-30T03:11:46.725Z,3.08
2023-03-30T03:12:46.659Z,3.13
2023-03-30T03:13:46.657Z,3.23
2023-03-30T03:14:46.656Z,3.22
2023-03-30T03:15:46.589Z,3.31
2023-03-30T03:16:46.624Z,3.28
2023-03-30T03:17:46.576Z,3.32
2023-03-30T03:18:46.489Z,3.42
2023-03-30T03:19:46.473Z,3.34
2023-03-30T03:20:46.430Z,3.45
2023-03-30T03:21:46.396Z,3.41
2023-03-30T03:22:46.415Z,3.51
2023-03-30T03:23:46.382Z,3.41
2023-03-30T03:24:46.321Z,3.50
2023-03-30T03:25:46.313Z,3.47
2023-03-30T03:26:46.243Z,3.48
2023-03-30T03:27:46.238Z,3.51
2023-03-30T03:28:47.886Z,3.47
2023-03-30T03:29:46.157Z,3.51
2023-03-30T03:30:46.150Z,3.48
2023-03-30T03:31:46.128Z,3.48
2023-03-30T03:32:46.098Z,3.51
2023-03-30T03:33:46.069Z,3.47
2023-03-30T03:34:46.037Z,3.47
2023-03-30T03:35:46.040Z,3.58
2023-03-30T03:36:45.950Z,3.53
2023-03-30T03:37:45.968Z,3.58
2023-03-30T03:38:45.904Z,3.59
2023-03-30T03:39:45.882Z,3.59
2023-03-30T03:40:45.819Z,3.60
2023-03-30T03:41:45.804Z,3.56
2023-03-30T03:42:45.827Z,3.66
2023-03-30T03:43:45.733Z,3.62
2023-03-30T03:44:45.716Z,3.56
2023-03-30T03:45:45.706Z,3.55
2023-03-30T03:46:45.670Z,3.56
2023-03-30T03:47:45.676Z,3.58
2023-03-30T03:48:45.582Z,3.56
2023-03-30T03:49:45.558Z,3.58
2023-03-30T03:50:45.550Z,3.58
2023-03-30T03:51:45.517Z,3.60
2023-03-30T03:52:45.470Z,3.56
2023-03-30T03:53:45.461Z,3.60
2023-03-30T03:54:45.409Z,3.56
2023-03-30T03:55:45.477Z,3.51
2023-03-30T03:56:45.407Z,3.45
2023-03-30T03:57:45.322Z,3.45
2023-03-30T03:58:45.294Z,3.42
2023-03-30T03:59:45.264Z,3.42
2023-03-30T04:00:45.250Z,3.34
2023-03-30T04:01:45.259Z,3.34
2023-03-30T04:02:45.256Z,3.40
2023-03-30T04:03:45.138Z,3.28
2023-03-30T04:04:45.127Z,3.22
2023-03-30T04:05:45.112Z,3.25
2023-03-30T04:06:45.054Z,3.18
2023-03-30T04:07:45.032Z,3.10
2023-03-30T04:08:44.982Z,3.05
2023-03-30T04:09:44.961Z,3.14
2023-03-30T04:10:44.985Z,3.05
2023-03-30T04:11:44.896Z,3.07
2023-03-30T04:12:44.871Z,3.14
2023-03-30T04:13:44.846Z,3.19
2023-03-30T04:14:44.796Z,3.22
2023-03-30T04:15:44.793Z,3.21
2023-03-30T04:16:44.781Z,3.22
2023-03-30T04:17:47.297Z,3.18
2023-03-30T04:18:44.702Z,3.19
2023-03-30T04:19:44.686Z,3.21
2023-03-30T04:20:44.633Z,3.16
2023-03-30T04:21:44.628Z,3.19
2023-03-30T04:22:44.635Z,3.22
2023-03-30T04:23:44.539Z,3.22
2023-03-30T04:24:44.494Z,3.18
2023-03-30T04:25:44.478Z,3.23
2023-03-30T04:26:44.453Z,3.19
2023-03-30T04:27:44.432Z,3.25
2023-03-30T04:28:44.388Z,3.23
2023-03-30T04:29:44.383Z,3.22
2023-03-30T04:30:44.330Z,3.28
2023-03-30T04:31:44.326Z,3.22
2023-03-30T04:32:44.335Z,3.18
2023-03-30T04:33:46.458Z,3.16
2023-03-30T04:34:44.215Z,3.21
2023-03-30T04:35:44.193Z,3.22
2023-03-30T04:36:44.134Z,3.16
2023-03-30T04:37:44.130Z,3.25
2023-03-30T04:38:44.082Z,3.13
2023-03-30T04:39:44.063Z,3.10
2023-03-30T04:40:44.066Z,3.07
2023-03-30T04:41:44.028Z,3.13
2023-03-30T04:42:43.960Z,3.11
2023-03-30T04:43:43.949Z,3.08
2023-03-30T04:44:43.985Z,3.11
2023-03-30T04:45:43.895Z,3.19
2023-03-30T04:46:43.867Z,3.13
2023-03-30T04:47:43.841Z,3.18
2023-03-30T04:48:43.797Z,3.13
2023-03-30T04:49:43.795Z,3.25
2023-03-30T04:50:43.719Z,3.19
2023-03-30T04:51:43.697Z,3.08
2023-03-30T04:52:43.656Z,3.16
2023-03-30T04:53:43.632Z,3.07
2023-03-30T04:54:43.624Z,3.01
2023-03-30T04:55:43.614Z,3.10
2023-03-30T04:56:43.566Z,3.13
2023-03-30T04:57:43.533Z,3.11
2023-03-30T04:58:43.472Z,3.13
2023-03-30T04:59:43.459Z,3.08
2023-03-30T05:00:43.445Z,3.14
2023-03-30T05:01:43.436Z,3.18
2023-03-30T05:02:43.495Z,3.16
2023-03-30T05:03:43.403Z,3.13
2023-03-30T05:04:43.296Z,3.10
2023-03-30T05:05:43.280Z,3.10
2023-03-30T05:06:43.236Z,3.11
2023-03-30T05:07:43.207Z,3.07
2023-03-30T05:08:43.224Z,3.11
2023-03-30T05:09:43.219Z,3.13
2023-03-30T05:10:43.121Z,3.08
2023-03-30T05:11:43.107Z,3.00
2023-03-30T05:12:43.052Z,3.01
2023-03-30T05:13:43.038Z,3.18
2023-03-30T05:14:42.996Z,3.07
2023-03-30T05:15:42.976Z,3.03
2023-03-30T05:16:43.096Z,3.05
2023-03-30T05:17:42.957Z,3.04
2023-03-30T05:18:42.867Z,3.07
2023-03-30T05:19:42.862Z,3.14
2023-03-30T05:20:42.837Z,3.10
2023-03-30T05:21:42.792Z,3.13
2023-03-30T05:22:42.794Z,3.05
2023-03-30T05:23:42.722Z,3.08
2023-03-30T05:24:42.696Z,3.07
2023-03-30T05:25:42.728Z,3.18
2023-03-30T05:26:42.628Z,3.11
2023-03-30T05:27:42.598Z,3.05
2023-03-30T05:28:42.564Z,3.04
2023-03-30T05:29:42.553Z,3.05
2023-03-30T05:30:42.518Z,3.05
2023-03-30T05:31:42.572Z,3.03
2023-03-30T05:32:42.475Z,3.00
2023-03-30T05:33:43.919Z,3.07
2023-03-30T05:34:42.392Z,3.04
2023-03-30T05:35:42.381Z,3.04
2023-03-30T05:36:42.384Z,2.92
2023-03-30T05:37:42.303Z,3.00
2023-03-30T05:38:42.283Z,3.03
2023-03-30T05:39:42.253Z,3.03
2023-03-30T05:40:42.317Z,3.04
2023-03-30T05:41:42.196Z,2.95
2023-03-30T05:42:42.144Z,3.05
2023-03-30T05:43:42.118Z,3.03
2023-03-30T05:44:42.098Z,2.98
2023-03-30T05:45:42.064Z,2.95
2023-03-30T05:46:42.114Z,3.00
2023-03-30T05:47:42.045Z,3.00
2023-03-30T05:48:41.976Z,3.04
2023-03-30T05:49:41.939Z,3.07
2023-03-30T05:50:41.929Z,3.04
2023-03-30T05:51:41.874Z,3.07
2023-03-30T05:52:41.860Z,3.08
2023-03-30T05:53:41.815Z,3.01
2023-03-30T05:54:41.786Z,3.14
2023-03-30T05:55:41.760Z,3.19
2023-03-30T05:56:41.757Z,3.13
2023-03-30T05:57:41.692Z,3.21
2023-03-30T05:58:41.667Z,3.19
2023-03-30T05:59:41.632Z,3.32
2023-03-30T06:00:41.609Z,3.36
2023-03-30T06:01:41.596Z,3.34
2023-03-30T06:02:41.628Z,3.40
2023-03-30T06:03:41.609Z,3.42
2023-03-30T06:04:41.524Z,3.47
2023-03-30T06:05:41.451Z,3.58
2023-03-30T06:06:41.423Z,3.62
2023-03-30T06:07:41.401Z,3.66
2023-03-30T06:08:41.357Z,3.81
2023-03-30T06:09:41.340Z,3.86
2023-03-30T06:10:41.597Z,3.96
2023-03-30T06:11:41.287Z,3.95
2023-03-30T06:12:41.250Z,4.08
2023-03-30T06:13:41.215Z,4.26
2023-03-30T06:14:41.186Z,4.32
2023-03-30T06:15:41.179Z,4.48
2023-03-30T06:16:41.177Z,4.50
2023-03-30T06:17:41.149Z,4.56
2023-03-30T06:18:41.084Z,4.56
2023-03-30T06:19:41.044Z,4.70
2023-03-30T06:20:41.100Z,4.84
2023-03-30T06:21:41.107Z,4.93
2023-03-30T06:22:40.950Z,4.97
2023-03-30T06:23:40.949Z,5.10
2023-03-30T06:24:40.918Z,5.14
2023-03-30T06:25:40.860Z,5.23
2023-03-30T06:26:40.835Z,5.33
2023-03-30T06:27:43.432Z,5.43
2023-03-30T06:28:40.775Z,5.36
2023-03-30T06:29:40.768Z,5.57
2023-03-30T06:30:40.720Z,5.54
2023-03-30T06:31:40.742Z,5.68
2023-03-30T06:32:40.741Z,5.73
2023-03-30T06:33:41.996Z,5.80
2023-03-30T06:34:40.624Z,5.90
2023-03-30T06:35:40.627Z,5.89
2023-03-30T06:36:44.634Z,6.05
2023-03-30T06:37:40.519Z,6.02
2023-03-30T06:38:40.496Z,6.14
2023-03-30T06:39:40.532Z,6.16
2023-03-30T06:40:40.439Z,6.27
2023-03-30T06:41:40.415Z,6.19
2023-03-30T06:42:40.451Z,6.24
2023-03-30T06:43:40.370Z,6.42
2023-03-30T06:44:40.353Z,6.42
2023-03-30T06:45:40.300Z,6.46
2023-03-30T06:46:40.282Z,6.57
2023-03-30T06:47:40.328Z,6.57
2023-03-30T06:48:40.206Z,6.56
2023-03-30T06:49:40.187Z,6.63
2023-03-30T06:50:40.197Z,6.64
2023-03-30T06:51:40.122Z,6.72
2023-03-30T06:52:40.098Z,6.63
2023-03-30T06:53:40.267Z,6.79
2023-03-30T06:54:40.057Z,6.67
2023-03-30T06:55:40.041Z,6.74
2023-03-30T06:56:40.128Z,6.87
2023-03-30T06:57:39.950Z,6.81
2023-03-30T06:58:39.941Z,6.93
2023-03-30T06:59:39.901Z,6.93
2023-03-30T07:00:39.878Z,7.03
2023-03-30T07:01:39.914Z,7.13
2023-03-30T07:02:39.884Z,7.18
2023-03-30T07:03:39.782Z,7.35
2023-03-30T07:04:39.848Z,7.48
2023-03-30T07:05:39.756Z,7.53
2023-03-30T07:06:40.046Z,7.57
2023-03-30T07:07:39.696Z,7.73
2023-03-30T07:08:39.680Z,7.73
2023-03-30T07:09:39.632Z,7.85
2023-03-30T07:10:39.608Z,7.80
2023-03-30T07:11:39.616Z,8.01
2023-03-30T07:12:39.558Z,8.08
2023-03-30T07:13:39.531Z,8.13
2023-03-30T07:14:39.511Z,8.12
2023-03-30T07:15:39.457Z,8.10
2023-03-30T07:16:39.546Z,8.24
2023-03-30T07:17:39.473Z,8.19
2023-03-30T07:18:39.406Z,8.24
2023-03-30T07:19:39.458Z,8.34
2023-03-30T07:20:39.374Z,8.42
2023-03-30T07:21:39.339Z,8.48
2023-03-30T07:22:39.289Z,8.51
2023-03-30T07:23:39.296Z,8.52
2023-03-30T07:24:39.279Z,8.60
2023-03-30T07:25:39.225Z,8.64
2023-03-30T07:26:39.183Z,8.66
2023-03-30T07:27:39.149Z,8.74
2023-03-30T07:28:39.146Z,8.64
2023-03-30T07:29:39.118Z,8.74
2023-03-30T07:30:39.226Z,8.87
2023-03-30T07:31:39.112Z,8.84
2023-03-30T07:32:39.132Z,8.94
2023-03-30T07:33:39.053Z,8.97
2023-03-30T07:34:38.971Z,9.06
2023-03-30T07:35:38.980Z,9.06
2023-03-30T07:36:38.940Z,9.21
2023-03-30T07:37:38.916Z,9.10
2023-03-30T07:38:38.885Z,9.13
2023-03-30T07:39:38.869Z,9.14
2023-03-30T07:40:38.888Z,9.14
2023-03-30T07:41:38.785Z,9.13
2023-03-30T07:42:38.806Z,9.08
2023-03-30T07:43:38.729Z,9.10
2023-03-30T07:44:38.704Z,9.06
2023-03-30T07:45:38.733Z,9.14
2023-03-30T07:46:38.790Z,9.14
2023-03-30T07:47:38.644Z,9.21
2023-03-30T07:48:38.665Z,9.29
2023-03-30T07:49:38.661Z,9.26
2023-03-30T07:50:38.557Z,9.25
2023-03-30T07:51:38.569Z,9.39
2023-03-30T07:52:38.503Z,9.41
2023-03-30T07:53:38.482Z,9.39
2023-03-30T07:54:38.469Z,9.48
2023-03-30T07:55:38.410Z,9.59
2023-03-30T07:56:38.386Z,9.55
2023-03-30T07:57:38.370Z,9.48
2023-03-30T07:58:38.335Z,9.58
2023-03-30T07:59:38.309Z,9.51
2023-03-30T08:00:38.303Z,9.51
2023-03-30T08:01:38.250Z,9.54
2023-03-30T08:02:38.291Z,9.56
2023-03-30T08:03:38.403Z,9.56
2023-03-30T08:04:38.334Z,9.59
2023-03-30T08:05:38.152Z,9.59
2023-03-30T08:06:38.137Z,9.58
2023-03-30T08:07:38.109Z,9.65
2023-03-30T08:08:38.169Z,9.68
2023-03-30T08:09:38.048Z,9.66
2023-03-30T08:10:38.077Z,9.77
2023-03-30T08:11:38.010Z,9.69
2023-03-30T08:12:37.974Z,9.79
2023-03-30T08:13:37.976Z,9.82
2023-03-30T08:14:37.932Z,9.83
2023-03-30T08:15:37.891Z,9.97
2023-03-30T08:16:37.958Z,9.99
2023-03-30T08:17:37.885Z,9.98
2023-03-30T08:18:37.829Z,10.13
2023-03-30T08:19:37.817Z,10.15
2023-03-30T08:20:37.793Z,10.20
2023-03-30T08:21:37.750Z,10.16
2023-03-30T08:22:37.749Z,10.19
2023-03-30T08:23:37.765Z,10.13
2023-03-30T08:24:37.664Z,10.15
2023-03-30T08:25:37.749Z,10.13
2023-03-30T08:26:37.696Z,10.25
2023-03-30T08:27:37.617Z,10.22
2023-03-30T08:28:37.588Z,10.30
2023-03-30T08:29:37.577Z,10.35
2023-03-30T08:30:37.527Z,10.49
2023-03-30T08:31:37.583Z,10.49
2023-03-30T08:32:37.506Z,10.54
2023-03-30T08:33:37.442Z,10.54
2023-03-30T08:34:37.508Z,10.56
2023-03-30T08:35:37.429Z,10.72
2023-03-30T08:36:37.376Z,10.63
2023-03-30T08:37:37.334Z,10.72
2023-03-30T08:38:37.319Z,10.82
2023-03-30T08:39:37.340Z,10.87
2023-03-30T08:40:37.262Z,10.82
2023-03-30T08:41:37.253Z,10.90
2023-03-30T08:42:37.252Z,10.89
2023-03-30T08:43:37.180Z,10.84
2023-03-30T08:44:37.168Z,10.96
2023-03-30T08:45:38.186Z,10.96
2023-03-30T08:46:37.115Z,10.89
2023-03-30T08:47:37.199Z,10.93
2023-03-30T08:48:37.067Z,10.96
2023-03-30T08:49:37.029Z,10.87
2023-03-30T08:50:37.010Z,10.92
2023-03-30T08:51:37.019Z,10.92
2023-03-30T08:52:36.992Z,11.15
2023-03-30T08:53:36.950Z,11.12
2023-03-30T08:54:36.912Z,11.15
2023-03-30T08:55:36.923Z,11.27
2023-03-30T08:56:36.942Z,11.22
2023-03-30T08:57:36.831Z,11.30
2023-03-30T08:58:36.851Z,11.35
2023-03-30T08:59:36.782Z,11.32
2023-03-30T09:00:36.778Z,11.30
2023-03-30T09:01:36.852Z,11.35
2023-03-30T09:02:38.113Z,11.35
2023-03-30T09:03:36.682Z,11.26
2023-03-30T09:04:36.684Z,11.29
2023-03-30T09:05:36.683Z,11.40
2023-03-30T09:06:36.633Z,11.47
2023-03-30T09:07:36.591Z,11.44
2023-03-30T09:08:36.585Z,11.45
2023-03-30T09:09:36.535Z,11.50
2023-03-30T09:10:36.518Z,11.52
2023-03-30T09:11:36.517Z,11.63
2023-03-30T09:12:36.469Z,11.68
2023-03-30T09:13:36.434Z,11.73
2023-03-30T09:14:36.469Z,11.77
2023-03-30T09:15:36.425Z,11.87
2023-03-30T09:16:36.404Z,11.95
2023-03-30T09:17:36.373Z,11.90
2023-03-30T09:18:36.357Z,12.00
2023-03-30T09:19:36.305Z,12.09
2023-03-30T09:20:36.290Z,12.10
2023-03-30T09:21:36.267Z,12.12
2023-03-30T09:22:36.224Z,12.20
2023-03-30T09:23:36.246Z,12.22
2023-03-30T09:24:36.196Z,12.27
2023-03-30T09:25:36.189Z,12.21
2023-03-30T09:26:36.188Z,12.29
2023-03-30T09:27:36.110Z,12.24
2023-03-30T09:28:36.133Z,12.24
2023-03-30T09:29:36.057Z,12.24
2023-03-30T09:30:36.050Z,12.21
2023-03-30T09:31:36.052Z,12.22
2023-03-30T09:32:36.071Z,12.28
2023-03-30T09:33:35.971Z,12.40
2023-03-30T09:34:35.961Z,12.37
2023-03-30T09:35:35.954Z,12.32
2023-03-30T09:36:35.933Z,12.36
2023-03-30T09:37:35.880Z,12.29
2023-03-30T09:38:35.871Z,12.29
2023-03-30T09:39:35.830Z,12.29
2023-03-30T09:40:35.800Z,12.27
2023-03-30T09:41:35.811Z,12.31
2023-03-30T09:42:35.811Z,12.27
2023-03-30T09:43:35.723Z,12.22
2023-03-30T09:44:35.716Z,12.20
2023-03-30T09:45:35.708Z,12.25
2023-03-30T09:46:35.739Z,12.15
2023-03-30T09:47:35.726Z,12.21
2023-03-30T09:48:35.624Z,12.18
2023-03-30T09:49:35.589Z,12.22
2023-03-30T09:50:35.560Z,12.28
2023-03-30T09:51:35.543Z,12.27
2023-03-30T09:52:35.543Z,12.36
2023-03-30T09:53:35.486Z,12.35
2023-03-30T09:54:35.466Z,12.37
2023-03-30T09:55:35.462Z,12.36
2023-03-30T09:56:35.452Z,12.36
2023-03-30T09:57:35.485Z,12.40
2023-03-30T09:58:35.439Z,12.43
2023-03-30T09:59:35.379Z,12.42
2023-03-30T10:00:35.335Z,12.40
2023-03-30T10:01:35.359Z,12.46
2023-03-30T10:02:35.368Z,12.47
2023-03-30T10:03:35.385Z,12.49
2023-03-30T10:04:35.287Z,12.57
2023-03-30T10:05:35.232Z,12.60
2023-03-30T10:06:35.189Z,12.47
2023-03-30T10:07:35.158Z,12.62
2023-03-30T10:08:35.146Z,12.49
2023-03-30T10:09:35.131Z,12.54
2023-03-30T10:10:35.085Z,12.50
2023-03-30T10:11:35.066Z,12.61
2023-03-30T10:12:35.071Z,12.65
2023-03-30T10:13:35.011Z,12.64
2023-03-30T10:14:35.023Z,12.72
2023-03-30T10:15:35.030Z,12.70
2023-03-30T10:16:35.023Z,12.82
2023-03-30T10:17:35.020Z,12.87
2023-03-30T10:18:34.972Z,12.94
2023-03-30T10:19:37.542Z,12.94
2023-03-30T10:20:34.864Z,13.03
2023-03-30T10:21:34.831Z,13.08
2023-03-30T10:22:34.843Z,13.04
2023-03-30T10:23:34.786Z,13.00
2023-03-30T10:24:34.770Z,12.90
2023-03-30T10:25:34.748Z,12.87
2023-03-30T10:26:34.773Z,12.86
2023-03-30T10:27:34.785Z,12.87
2023-03-30T10:28:34.764Z,12.86
2023-03-30T10:29:34.672Z,12.78
2023-03-30T10:30:34.621Z,12.79
2023-03-30T10:31:34.664Z,12.86
2023-03-30T10:32:34.610Z,12.83
2023-03-30T10:33:34.546Z,12.86
2023-03-30T10:34:34.533Z,12.79
2023-03-30T10:35:34.551Z,12.72
2023-03-30T10:36:34.507Z,12.73
2023-03-30T10:37:34.462Z,12.80
2023-03-30T10:38:34.433Z,12.73
2023-03-30T10:39:34.427Z,12.82
2023-03-30T10:40:34.383Z,12.79
2023-03-30T10:41:34.388Z,12.78
2023-03-30T10:42:34.367Z,12.72
2023-03-30T10:43:34.347Z,12.68
2023-03-30T10:44:34.322Z,12.58
2023-03-30T10:45:34.292Z,12.53
2023-03-30T10:46:34.306Z,12.45
2023-03-30T10:47:34.254Z,12.53
2023-03-30T10:48:34.199Z,12.46
2023-03-30T10:49:34.174Z,12.37
2023-03-30T10:50:34.186Z,12.45
2023-03-30T10:51:34.130Z,12.43
2023-03-30T10:52:34.106Z,12.46
2023-03-30T10:53:34.137Z,12.47
2023-03-30T10:54:34.074Z,12.45
2023-03-30T10:55:34.038Z,12.49
2023-03-30T10:56:34.020Z,12.61
2023-03-30T10:57:34.034Z,12.47
2023-03-30T10:58:34.025Z,12.54
2023-03-30T10:59:33.975Z,12.57
2023-03-30T11:00:33.939Z,12.60
2023-03-30T11:01:33.984Z,12.61
2023-03-30T11:02:33.913Z,12.62
2023-03-30T11:03:34.039Z,12.60
2023-03-30T11:04:34.142Z,12.62
2023-03-30T11:05:33.798Z,12.58
2023-03-30T11:06:33.792Z,12.61
2023-03-30T11:07:33.752Z,12.47
2023-03-30T11:08:33.753Z,12.50
2023-03-30T11:09:33.719Z,12.39
2023-03-30T11:10:33.711Z,12.28
2023-03-30T11:11:33.664Z,12.24
2023-03-30T11:12:33.643Z,12.20
2023-03-30T11:13:33.626Z,12.21
2023-03-30T11:14:33.582Z,12.20
2023-03-30T11:15:33.582Z,12.06
2023-03-30T11:16:33.614Z,12.20
2023-03-30T11:17:33.572Z,12.15
2023-03-30T11:18:33.486Z,12.22
2023-03-30T11:19:33.472Z,12.18
2023-03-30T11:20:33.475Z,12.25
2023-03-30T11:21:33.426Z,12.20
2023-03-30T11:22:33.663Z,12.25
2023-03-30T11:23:33.381Z,12.28
2023-03-30T11:24:33.336Z,12.32
2023-03-30T11:25:33.334Z,12.39
2023-03-30T11:26:33.317Z,12.49
2023-03-30T11:27:33.302Z,12.50
2023-03-30T11:28:33.250Z,12.55
2023-03-30T11:29:33.229Z,12.62
2023-03-30T11:30:33.221Z,12.68
2023-03-30T11:31:33.210Z,12.78
2023-03-30T11:32:33.227Z,12.68
2023-03-30T11:33:33.140Z,12.70
2023-03-30T11:34:33.134Z,12.76
2023-03-30T11:35:33.118Z,12.62
2023-03-30T11:36:33.067Z,12.58
2023-03-30T11:37:33.062Z,12.62
2023-03-30T11:38:33.056Z,12.60
2023-03-30T11:39:33.236Z,12.60
2023-03-30T11:40:33.020Z,12.64
2023-03-30T11:41:32.976Z,12.70
2023-03-30T11:42:32.930Z,12.68
2023-03-30T11:43:32.903Z,12.67
2023-03-30T11:44:32.897Z,12.76
2023-03-30T11:45:32.897Z,12.72
2023-03-30T11:46:32.835Z,12.64
2023-03-30T11:47:32.869Z,12.68
2023-03-30T11:48:32.778Z,12.64
2023-03-30T11:49:32.753Z,12.72
2023-03-30T11:50:32.737Z,12.70
2023-03-30T11:51:32.747Z,12.72
2023-03-30T11:52:32.680Z,12.62
2023-03-30T11:53:32.666Z,12.64
2023-03-30T11:54:32.734Z,12.55
2023-03-30T11:55:32.764Z,12.65
2023-03-30T11:56:32.582Z,12.60
2023-03-30T11:57:32.603Z,12.61
2023-03-30T11:58:32.547Z,12.62
2023-03-30T11:59:32.521Z,12.54
2023-03-30T12:00:32.497Z,12.55
2023-03-30T12:01:32.506Z,12.55
2023-03-30T12:02:32.493Z,12.47
2023-03-30T12:03:32.624Z,12.49
2023-03-30T12:04:32.528Z,12.47
2023-03-30T12:05:32.385Z,12.47
2023-03-30T12:06:32.375Z,12.47
2023-03-30T12:07:32.366Z,12.45
2023-03-30T12:08:32.336Z,12.45
2023-03-30T12:09:32.294Z,12.42
2023-03-30T12:10:32.346Z,12.43
2023-03-30T12:11:32.268Z,12.31
2023-03-30T12:12:32.264Z,12.31
2023-03-30T12:13:44.546Z,12.28
2023-03-30T12:14:32.182Z,12.39
2023-03-30T12:15:32.148Z,12.35
2023-03-30T12:16:32.166Z,12.29
2023-03-30T12:17:32.134Z,12.29
2023-03-30T12:18:32.135Z,12.27
2023-03-30T12:19:35.652Z,12.28
2023-03-30T12:20:32.032Z,12.28
2023-03-30T12:21:32.024Z,12.29
2023-03-30T12:22:31.994Z,12.31
2023-03-30T12:23:31.956Z,12.22
2023-03-30T12:24:31.941Z,12.21
2023-03-30T12:25:31.902Z,12.24
2023-03-30T12:26:31.881Z,12.22
2023-03-30T12:27:31.868Z,12.22
2023-03-30T12:28:44.194Z,12.24
2023-03-30T12:29:52.478Z,12.13
2023-03-30T12:30:31.819Z,12.10
2023-03-30T12:31:31.816Z,12.15
2023-03-30T12:32:31.755Z,12.13
2023-03-30T12:33:31.721Z,12.15
2023-03-30T12:34:31.712Z,12.10
2023-03-30T12:35:31.753Z,12.12
2023-03-30T12:36:31.633Z,12.02
2023-03-30T12:37:31.644Z,11.99
2023-03-30T12:38:31.577Z,11.97
2023-03-30T12:39:31.586Z,12.03
2023-03-30T12:40:31.549Z,12.02
2023-03-30T12:41:31.531Z,12.10
2023-03-30T12:42:31.520Z,12.10
2023-03-30T12:43:31.468Z,12.09
2023-03-30T12:44:31.465Z,12.15
2023-03-30T12:45:31.477Z,12.09
2023-03-30T12:46:31.558Z,12.12
2023-03-30T12:47:31.428Z,12.09
2023-03-30T12:48:31.344Z,11.99
2023-03-30T12:49:31.320Z,12.03
2023-03-30T12:50:31.310Z,11.97
2023-03-30T12:51:31.292Z,11.91
2023-03-30T12:52:31.272Z,11.94
2023-03-30T12:53:31.237Z,11.78
2023-03-30T12:54:31.220Z,11.77
2023-03-30T12:55:31.179Z,11.80
2023-03-30T12:56:31.150Z,11.66
2023-03-30T12:57:31.267Z,11.60
2023-03-30T12:58:31.108Z,11.59
2023-03-30T12:59:31.117Z,11.51
2023-03-30T13:00:31.066Z,11.62
2023-03-30T13:01:31.075Z,11.48
2023-03-30T13:02:31.083Z,11.50
2023-03-30T13:03:30.984Z,11.55
2023-03-30T13:04:31.029Z,11.47
2023-03-30T13:05:30.944Z,11.47
2023-03-30T13:06:30.910Z,11.62
2023-03-30T13:07:30.906Z,11.40
2023-03-30T13:08:30.854Z,11.48